Time;durP1;ratioP1;P1;durP2;ratioP2;P2;SDS_P1;SDS_P2;PMS_P1;PMS_P2;Temp;Humidity;BMP_temperature;BMP_pressure;BME280_temperature;BME280_humidity;BME280_pressure;Samples;Min_cycle;Max_cycle;Signal;HPM_P1;HPM_P2
2023/04/22 00:02:13;;;;;;;16.85;11.15;;;;;;;;;;5058805;28;20029;-85
2023/04/22 00:04:40;;;;;;;26.55;10.68;;;;;;;;;;5057516;28;20072;-80
2023/04/22 00:07:06;;;;;;;22.23;12.32;;;;;;;;;;5058095;28;20115;-86
2023/04/22 00:09:31;;;;;;;20.98;11.88;;;;;;;;;;5057612;28;20044;-80
2023/04/22 00:11:57;;;;;;;18.50;11.15;;;;;;;;;;5057969;28;20009;-85
2023/04/22 00:14:23;;;;;;;22.83;12.52;;;;;;;;;;5074962;28;20195;-85
2023/04/22 00:16:49;;;;;;;19.55;10.57;;;;;;;;;;5058463;28;20056;-83
2023/04/22 00:19:15;;;;;;;23.58;10.90;;;;;;;;;;5058523;28;20029;-85
2023/04/22 00:21:41;;;;;;;29.08;12.82;;;;;;;;;;5059250;28;20035;-85
2023/04/22 00:24:06;;;;;;;16.38;10.25;;;;;;;;;;5041018;28;20057;-85
2023/04/22 00:26:32;;;;;;;22.48;11.13;;;;;;;;;;5057202;28;20032;-84
2023/04/22 00:28:58;;;;;;;21.08;10.88;;;;;;;;;;5059491;28;20052;-84
2023/04/22 00:31:23;;;;;;;21.48;10.52;;;;;;;;;;5057459;28;20059;-83
2023/04/22 00:33:49;;;;;;;24.15;10.70;;;;;;;;;;5058788;28;20033;-83
2023/04/22 00:36:15;;;;;;;20.08;11.00;;;;;;;;;;5058973;28;20021;-86
2023/04/22 00:38:48;;;;;;;22.88;11.68;;;;;;;;;;5058358;28;20032;-84
2023/04/22 00:41:14;;;;;;;19.92;12.18;;;;;;;;;;5058374;28;20057;-83
2023/04/22 00:43:40;;;;;;;17.75;11.13;;;;;;;;;;5040210;28;20508;-84
2023/04/22 00:46:05;;;;;;;22.85;11.07;;;;;;;;;;5057463;28;20009;-85
2023/04/22 00:48:31;;;;;;;26.83;11.88;;;;;;;;;;5057620;28;20107;-84
2023/04/22 00:50:57;;;;;;;21.27;11.52;;;;;;;;;;5058936;28;20372;-80
2023/04/22 00:53:22;;;;;;;22.05;11.82;;;;;;;;;;5055852;28;20131;-83
2023/04/22 00:55:49;;;;;;;17.27;10.70;;;;;;;;;;5056789;28;20040;-83
2023/04/22 00:58:18;;;;;;;17.52;10.88;;;;;;;;;;5058266;28;20536;-84
2023/04/22 01:00:43;;;;;;;22.80;11.18;;;;;;;;;;5057691;28;20139;-84
2023/04/22 01:03:11;;;;;;;23.55;11.23;;;;;;;;;;5057738;28;20033;-84
2023/04/22 01:05:38;;;;;;;18.10;10.32;;;;;;;;;;5057668;28;20025;-84
2023/04/22 01:08:03;;;;;;;19.98;11.93;;;;;;;;;;5059292;28;20047;-84
2023/04/22 01:10:29;;;;;;;20.30;11.43;;;;;;;;;;5058776;28;20473;-81
2023/04/22 01:12:54;;;;;;;19.67;12.02;;;;;;;;;;5056689;28;20085;-84
2023/04/22 01:15:20;;;;;;;20.67;11.98;;;;;;;;;;5057475;28;20093;-82
2023/04/22 01:17:45;;;;;;;20.73;12.23;;;;;;;;;;5055713;28;20029;-84
2023/04/22 01:20:11;;;;;;;19.83;11.98;;;;;;;;;;5073085;28;20025;-83
2023/04/22 01:22:41;;;;;;;21.42;12.20;;;;;;;;;;5057722;28;20025;-84
2023/04/22 01:25:08;;;;;;;20.55;11.73;;;;;;;;;;5057954;28;20083;-86
2023/04/22 01:27:35;;;;;;;20.00;11.95;;;;;;;;;;5058134;28;20031;-84
2023/04/22 01:30:01;;;;;;;25.33;12.30;;;;;;;;;;5057852;28;20084;-84
2023/04/22 01:32:29;;;;;;;23.08;12.63;;;;;;;;;;5058025;28;20033;-84
2023/04/22 01:34:55;;;;;;;20.38;12.27;;;;;;;;;;5058419;28;20104;-82
2023/04/22 01:37:20;;;;;;;22.25;12.30;;;;;;;;;;5056653;28;20053;-85
2023/04/22 01:39:47;;;;;;;19.23;12.07;;;;;;;;;;5056339;28;20021;-85
2023/04/22 01:42:12;;;;;;;23.70;12.13;;;;;;;;;;5057047;28;20021;-86
2023/04/22 01:44:38;;;;;;;20.13;12.75;;;;;;;;;;5057908;28;20132;-83
2023/04/22 01:47:04;;;;;;;20.77;11.70;;;;;;;;;;5056784;28;20064;-85
2023/04/22 01:49:29;;;;;;;27.95;12.55;;;;;;;;;;5057952;28;20060;-84
2023/04/22 01:51:59;;;;;;;23.30;12.18;;;;;;;;;;5056999;28;20071;-85
2023/04/22 01:54:25;;;;;;;25.80;12.65;;;;;;;;;;5056978;28;20029;-85
2023/04/22 01:56:52;;;;;;;23.08;12.20;;;;;;;;;;5056283;28;20119;-85
2023/04/22 01:59:19;;;;;;;25.33;12.85;;;;;;;;;;5057390;28;20393;-85
2023/04/22 02:01:44;;;;;;;23.23;13.18;;;;;;;;;;5056473;28;20068;-84
2023/04/22 02:04:11;;;;;;;20.67;12.30;;;;;;;;;;5056203;28;20040;-84
2023/04/22 02:06:37;;;;;;;23.70;12.63;;;;;;;;;;5058621;28;20083;-84
2023/04/22 02:09:04;;;;;;;21.13;12.75;;;;;;;;;;5055480;28;20033;-81
2023/04/22 02:11:29;;;;;;;27.48;12.75;;;;;;;;;;5057701;28;20048;-84
2023/04/22 02:13:55;;;;;;;23.70;12.18;;;;;;;;;;5057155;28;20005;-86
2023/04/22 02:16:21;;;;;;;25.52;12.50;;;;;;;;;;5056900;28;20487;-83
2023/04/22 02:18:46;;;;;;;20.40;12.67;;;;;;;;;;5056261;28;20025;-79
2023/04/22 02:21:12;;;;;;;26.50;13.97;;;;;;;;;;5056124;28;20110;-84
2023/04/22 02:23:38;;;;;;;27.87;13.23;;;;;;;;;;5058373;28;20024;-85
2023/04/22 02:26:04;;;;;;;22.90;12.97;;;;;;;;;;5058964;28;20055;-85
2023/04/22 02:28:30;;;;;;;21.67;12.23;;;;;;;;;;5043279;28;20025;-81
2023/04/22 02:30:56;;;;;;;25.43;12.43;;;;;;;;;;5060085;28;20028;-86
2023/04/22 02:33:22;;;;;;;22.63;13.60;;;;;;;;;;5060614;28;20017;-83
2023/04/22 02:35:48;;;;;;;23.67;12.70;;;;;;;;;;5061273;28;20460;-85
2023/04/22 02:38:13;;;;;;;21.33;13.20;;;;;;;;;;5060385;28;20033;-85
2023/04/22 02:40:39;;;;;;;23.10;12.93;;;;;;;;;;5058953;28;20029;-84
2023/04/22 02:43:04;;;;;;;26.77;12.80;;;;;;;;;;5059284;28;20033;-85
2023/04/22 02:45:30;;;;;;;23.27;13.40;;;;;;;;;;5074805;28;20052;-84
2023/04/22 02:47:58;;;;;;;27.23;13.80;;;;;;;;;;5040720;28;20105;-86
2023/04/22 02:50:25;;;;;;;26.97;13.40;;;;;;;;;;5059000;28;20077;-85
2023/04/22 02:52:51;;;;;;;23.10;12.97;;;;;;;;;;5059320;28;20056;-86
2023/04/22 02:55:16;;;;;;;22.67;13.93;;;;;;;;;;5057795;28;20590;-83
2023/04/22 02:57:42;;;;;;;21.73;14.37;;;;;;;;;;5058829;28;20044;-85
2023/04/22 03:00:09;;;;;;;28.43;15.13;;;;;;;;;;5073940;28;20476;-81
2023/04/22 03:02:35;;;;;;;27.93;14.63;;;;;;;;;;5040722;28;20178;-86
2023/04/22 03:05:01;;;;;;;25.53;13.83;;;;;;;;;;5060105;28;20029;-85
2023/04/22 03:07:27;;;;;;;24.27;14.73;;;;;;;;;;5059312;28;20033;-85
2023/04/22 03:09:54;;;;;;;24.30;13.43;;;;;;;;;;5058623;28;20037;-84
2023/04/22 03:12:20;;;;;;;23.77;14.10;;;;;;;;;;5058491;28;20032;-83
2023/04/22 03:14:45;;;;;;;24.07;13.83;;;;;;;;;;5059027;28;20021;-85
2023/04/22 03:17:11;;;;;;;27.87;14.53;;;;;;;;;;5058617;28;20124;-84
2023/04/22 03:19:36;;;;;;;21.63;13.80;;;;;;;;;;5060457;28;20085;-85
2023/04/22 03:22:02;;;;;;;26.60;14.67;;;;;;;;;;5060399;28;20029;-85
2023/04/22 03:24:27;;;;;;;26.77;14.20;;;;;;;;;;5059828;28;20388;-84
2023/04/22 03:26:53;;;;;;;23.57;14.27;;;;;;;;;;5058393;28;20025;-85
2023/04/22 03:29:18;;;;;;;29.03;15.67;;;;;;;;;;5060490;28;20025;-83
2023/04/22 03:31:44;;;;;;;27.40;14.70;;;;;;;;;;5059371;28;20059;-83
2023/04/22 03:34:10;;;;;;;26.00;15.97;;;;;;;;;;5060857;28;20047;-83
2023/04/22 03:36:35;;;;;;;33.73;15.03;;;;;;;;;;5061914;28;20077;-85
2023/04/22 03:39:01;;;;;;;29.10;15.87;;;;;;;;;;5060056;28;20032;-85
2023/04/22 03:41:26;;;;;;;23.97;14.53;;;;;;;;;;5058424;28;20077;-86
2023/04/22 03:43:52;;;;;;;29.07;15.70;;;;;;;;;;5060562;28;20051;-85
2023/04/22 03:46:17;;;;;;;27.80;16.53;;;;;;;;;;5060135;28;20113;-85
2023/04/22 03:48:43;;;;;;;33.40;15.43;;;;;;;;;;5059361;28;20064;-84
2023/04/22 03:51:09;;;;;;;32.50;15.63;;;;;;;;;;5057600;28;20028;-84
2023/04/22 03:53:34;;;;;;;29.87;14.83;;;;;;;;;;5059124;28;20101;-81
2023/04/22 03:56:00;;;;;;;30.43;16.03;;;;;;;;;;5059155;28;20024;-85
2023/04/22 03:58:25;;;;;;;25.93;14.73;;;;;;;;;;5057489;28;20032;-85
2023/04/22 04:00:51;;;;;;;25.57;14.23;;;;;;;;;;5058178;28;20477;-85
2023/04/22 04:03:18;;;;;;;29.30;15.63;;;;;;;;;;5057082;28;20035;-81
2023/04/22 04:05:43;;;;;;;27.67;15.00;;;;;;;;;;5058784;28;20029;-84
2023/04/22 04:08:08;;;;;;;32.70;15.63;;;;;;;;;;5058571;28;20106;-84
2023/04/22 04:10:35;;;;;;;32.37;15.97;;;;;;;;;;5058517;28;20110;-85
2023/04/22 04:13:01;;;;;;;31.97;16.87;;;;;;;;;;5058296;28;20437;-86
2023/04/22 04:15:27;;;;;;;38.37;17.23;;;;;;;;;;5057788;28;20005;-85
2023/04/22 04:17:54;;;;;;;28.63;16.53;;;;;;;;;;5059178;28;20028;-82
2023/04/22 04:20:20;;;;;;;26.87;15.80;;;;;;;;;;5056790;28;20121;-85
2023/04/22 04:22:45;;;;;;;30.03;16.63;;;;;;;;;;5058169;28;20485;-84
2023/04/22 04:25:11;;;;;;;35.73;17.73;;;;;;;;;;5060006;28;20411;-84
2023/04/22 04:27:38;;;;;;;27.43;16.93;;;;;;;;;;5059445;28;20040;-84
2023/04/22 04:30:04;;;;;;;31.37;17.40;;;;;;;;;;5058467;28;20033;-85
2023/04/22 04:32:33;;;;;;;29.43;16.47;;;;;;;;;;5074446;28;20021;-79
2023/04/22 04:34:59;;;;;;;28.07;16.37;;;;;;;;;;5073732;28;20036;-83
2023/04/22 04:37:25;;;;;;;28.63;16.10;;;;;;;;;;5072939;28;20546;-84
2023/04/22 04:39:50;;;;;;;36.40;18.93;;;;;;;;;;5058342;28;20047;-87
2023/04/22 04:42:16;;;;;;;32.73;17.30;;;;;;;;;;5056466;28;20425;-86
2023/04/22 04:44:41;;;;;;;31.03;16.20;;;;;;;;;;5073787;28;20477;-84
2023/04/22 04:47:07;;;;;;;30.77;16.37;;;;;;;;;;5057262;28;20117;-86
2023/04/22 04:49:38;;;;;;;34.13;18.20;;;;;;;;;;5056640;28;20053;-85
2023/04/22 04:52:04;;;;;;;32.80;17.03;;;;;;;;;;5057726;28;20135;-86
2023/04/22 04:54:29;;;;;;;32.80;18.03;;;;;;;;;;5057691;28;20516;-85
2023/04/22 04:56:56;;;;;;;38.83;16.50;;;;;;;;;;5056550;28;20116;-82
2023/04/22 04:59:22;;;;;;;35.73;17.13;;;;;;;;;;5056238;28;20040;-85
2023/04/22 05:01:47;;;;;;;30.43;16.20;;;;;;;;;;5056176;28;20033;-86
2023/04/22 05:04:13;;;;;;;30.70;16.20;;;;;;;;;;5058399;28;20025;-85
2023/04/22 05:06:38;;;;;;;27.97;16.77;;;;;;;;;;5056838;28;20039;-86
2023/04/22 05:09:04;;;;;;;28.60;17.00;;;;;;;;;;5060421;28;20025;-85
2023/04/22 05:11:29;;;;;;;41.97;20.23;;;;;;;;;;5060903;28;20030;-84
2023/04/22 05:13:55;;;;;;;28.70;15.90;;;;;;;;;;5061022;28;20035;-85
2023/04/22 05:16:21;;;;;;;30.40;16.63;;;;;;;;;;5060770;28;20362;-83
2023/04/22 05:18:46;;;;;;;30.03;16.20;;;;;;;;;;5057892;28;20504;-80
2023/04/22 05:21:12;;;;;;;42.00;18.27;;;;;;;;;;5056881;28;20029;-86
2023/04/22 05:23:38;;;;;;;29.67;16.27;;;;;;;;;;5057968;28;20047;-85
2023/04/22 05:26:05;;;;;;;25.13;15.20;;;;;;;;;;5057828;28;20086;-85
2023/04/22 05:28:30;;;;;;;32.23;15.77;;;;;;;;;;5074516;28;20033;-85
2023/04/22 05:30:56;;;;;;;26.70;16.50;;;;;;;;;;5058279;28;20358;-81
2023/04/22 05:33:22;;;;;;;32.60;17.20;;;;;;;;;;5058427;28;20386;-85
2023/04/22 05:35:47;;;;;;;31.03;17.70;;;;;;;;;;5057663;28;20028;-85
2023/04/22 05:38:13;;;;;;;34.03;17.77;;;;;;;;;;5057005;28;20028;-86
2023/04/22 05:40:39;;;;;;;27.97;16.50;;;;;;;;;;5059445;28;20033;-86
2023/04/22 05:43:05;;;;;;;36.27;18.03;;;;;;;;;;5057269;28;20120;-83
2023/04/22 05:45:30;;;;;;;37.63;19.30;;;;;;;;;;5042361;28;20056;-81
2023/04/22 05:47:56;;;;;;;32.47;18.30;;;;;;;;;;5060601;28;20048;-82
2023/04/22 05:50:21;;;;;;;32.13;18.37;;;;;;;;;;5059816;28;20107;-84
2023/04/22 05:52:47;;;;;;;35.13;18.60;;;;;;;;;;5059115;28;20021;-85
2023/04/22 05:55:12;;;;;;;26.58;15.48;;;;;;;;;;5060210;28;20029;-84
2023/04/22 05:57:39;;;;;;;34.27;17.57;;;;;;;;;;5060886;28;20029;-83
2023/04/22 06:00:07;;;;;;;28.80;17.93;;;;;;;;;;5061985;28;20040;-80
2023/04/22 06:02:32;;;;;;;28.15;16.52;;;;;;;;;;5059281;28;20021;-80
2023/04/22 06:04:58;;;;;;;31.73;16.80;;;;;;;;;;5062388;28;20021;-86
2023/04/22 06:07:23;;;;;;;31.77;17.05;;;;;;;;;;5060646;28;20061;-86
2023/04/22 06:09:49;;;;;;;27.10;17.20;;;;;;;;;;5062405;28;20045;-86
2023/04/22 06:12:15;;;;;;;28.40;16.08;;;;;;;;;;5064187;28;20036;-83
2023/04/22 06:14:41;;;;;;;34.20;19.75;;;;;;;;;;5067607;28;20087;-84
2023/04/22 06:17:08;;;;;;;38.38;18.98;;;;;;;;;;5077136;28;20067;-83
2023/04/22 06:19:34;;;;;;;29.05;18.08;;;;;;;;;;5077054;28;20029;-85
2023/04/22 06:21:59;;;;;;;40.08;19.27;;;;;;;;;;5061654;28;20039;-80
2023/04/22 06:24:25;;;;;;;34.60;19.92;;;;;;;;;;5059809;28;20059;-83
2023/04/22 06:26:50;;;;;;;32.88;18.75;;;;;;;;;;5061653;28;20114;-87
2023/04/22 06:29:16;;;;;;;32.90;17.88;;;;;;;;;;5060957;28;20051;-87
2023/04/22 06:31:41;;;;;;;34.78;18.55;;;;;;;;;;5062796;28;20044;-87
2023/04/22 06:34:07;;;;;;;33.53;18.08;;;;;;;;;;5060801;28;20036;-85
2023/04/22 06:36:36;;;;;;;28.67;18.88;;;;;;;;;;5061727;28;20085;-85
2023/04/22 06:39:04;;;;;;;32.50;18.63;;;;;;;;;;5061324;28;20033;-86
2023/04/22 06:41:30;;;;;;;33.97;18.63;;;;;;;;;;5061267;28;20041;-85
2023/04/22 06:43:55;;;;;;;36.78;20.98;;;;;;;;;;5077360;28;20522;-83
2023/04/22 06:46:21;;;;;;;34.05;19.00;;;;;;;;;;5059866;28;20148;-85
2023/04/22 06:48:46;;;;;;;29.08;18.30;;;;;;;;;;5061784;28;20036;-86
2023/04/22 06:51:12;;;;;;;34.88;19.65;;;;;;;;;;5060594;28;20452;-85
2023/04/22 06:53:37;;;;;;;35.58;20.92;;;;;;;;;;5059895;28;20025;-83
2023/04/22 06:56:04;;;;;;;34.03;19.98;;;;;;;;;;5059888;28;20048;-84
2023/04/22 06:58:29;;;;;;;35.42;20.65;;;;;;;;;;5062093;28;20036;-86
2023/04/22 07:00:55;;;;;;;34.45;20.10;;;;;;;;;;5059861;28;20187;-87
2023/04/22 07:03:20;;;;;;;33.83;19.08;;;;;;;;;;5061148;28;20029;-88
2023/04/22 07:05:47;;;;;;;31.58;19.05;;;;;;;;;;5062403;28;20032;-86
2023/04/22 07:08:13;;;;;;;28.40;17.80;;;;;;;;;;5059567;28;20040;-85
2023/04/22 07:10:38;;;;;;;31.48;18.83;;;;;;;;;;5060553;28;20027;-85
2023/04/22 07:13:04;;;;;;;32.20;20.05;;;;;;;;;;5062195;28;20071;-84
2023/04/22 07:15:30;;;;;;;52.05;19.98;;;;;;;;;;5060766;28;20374;-85
2023/04/22 07:17:55;;;;;;;32.28;19.38;;;;;;;;;;5060949;28;20154;-86
2023/04/22 07:20:21;;;;;;;32.65;19.20;;;;;;;;;;5061537;28;20036;-86
2023/04/22 07:22:46;;;;;;;33.42;19.02;;;;;;;;;;5060237;28;20040;-86
2023/04/22 07:25:12;;;;;;;35.97;18.42;;;;;;;;;;5060972;28;20392;-86
2023/04/22 07:27:38;;;;;;;36.63;19.55;;;;;;;;;;5060725;28;20448;-86
2023/04/22 07:30:06;;;;;;;32.45;18.73;;;;;;;;;;5060317;28;20075;-80
2023/04/22 07:32:31;;;;;;;27.77;17.95;;;;;;;;;;5061600;28;20106;-84
2023/04/22 07:34:57;;;;;;;21.25;13.35;;;;;;;;;;5059981;28;20100;-82
2023/04/22 07:37:23;;;;;;;20.55;13.80;;;;;;;;;;5060792;28;20549;-86
2023/04/22 07:39:49;;;;;;;22.73;14.93;;;;;;;;;;5062393;28;20481;-84
2023/04/22 07:42:15;;;;;;;24.35;15.48;;;;;;;;;;5061502;28;20043;-85
2023/04/22 07:44:40;;;;;;;26.60;16.45;;;;;;;;;;5061009;28;20024;-86
2023/04/22 07:47:09;;;;;;;32.58;16.85;;;;;;;;;;5061317;28;20043;-80
2023/04/22 07:49:35;;;;;;;24.08;16.30;;;;;;;;;;5060036;28;20072;-87
2023/04/22 07:52:00;;;;;;;23.00;14.90;;;;;;;;;;5061418;28;20457;-87
2023/04/22 07:54:26;;;;;;;25.52;16.52;;;;;;;;;;5061089;28;20037;-86
2023/04/22 07:56:51;;;;;;;24.15;14.70;;;;;;;;;;5060213;28;20032;-86
2023/04/22 07:59:18;;;;;;;22.98;14.63;;;;;;;;;;5061530;28;20025;-85
2023/04/22 08:01:45;;;;;;;21.73;13.88;;;;;;;;;;5061236;28;20088;-87
2023/04/22 08:04:11;;;;;;;23.83;13.73;;;;;;;;;;5060826;28;20032;-86
2023/04/22 08:06:36;;;;;;;24.80;14.18;;;;;;;;;;5061524;28;20107;-85
2023/04/22 08:09:02;;;;;;;23.88;13.63;;;;;;;;;;5059165;28;20021;-84
2023/04/22 08:11:32;;;;;;;19.50;12.68;;;;;;;;;;5060954;28;20040;-86
2023/04/22 08:13:57;;;;;;;21.20;13.80;;;;;;;;;;5061158;28;20024;-84
2023/04/22 08:16:23;;;;;;;22.40;14.75;;;;;;;;;;5058280;28;20083;-86
2023/04/22 08:18:50;;;;;;;19.63;13.10;;;;;;;;;;5060058;28;20059;-83
2023/04/22 08:21:16;;;;;;;21.48;13.98;;;;;;;;;;5058345;28;20079;-86
2023/04/22 08:23:41;;;;;;;20.65;13.52;;;;;;;;;;5058663;28;20384;-86
2023/04/22 08:26:07;;;;;;;19.67;12.80;;;;;;;;;;5059153;28;20032;-85
2023/04/22 08:28:34;;;;;;;16.50;12.80;;;;;;;;;;5061562;28;20128;-84
2023/04/22 08:31:00;;;;;;;19.27;12.65;;;;;;;;;;5075177;28;20465;-81
2023/04/22 08:33:25;;;;;;;19.40;13.20;;;;;;;;;;5059487;28;20036;-84
2023/04/22 08:35:51;;;;;;;20.08;13.07;;;;;;;;;;5057792;28;20064;-88
2023/04/22 08:38:17;;;;;;;24.00;13.30;;;;;;;;;;5059847;28;20047;-86
2023/04/22 08:40:43;;;;;;;17.73;11.77;;;;;;;;;;5075511;28;20029;-87
2023/04/22 08:43:08;;;;;;;23.35;11.48;;;;;;;;;;5059427;28;20109;-85
2023/04/22 08:45:36;;;;;;;16.95;10.88;;;;;;;;;;5058095;28;20029;-86
2023/04/22 08:48:03;;;;;;;17.45;11.32;;;;;;;;;;5057681;28;20112;-87
2023/04/22 08:50:30;;;;;;;17.90;11.38;;;;;;;;;;5057909;28;20091;-86
2023/04/22 08:52:56;;;;;;;18.60;11.35;;;;;;;;;;5056788;28;20029;-85
2023/04/22 08:55:21;;;;;;;22.77;12.00;;;;;;;;;;5056720;28;20055;-87
2023/04/22 08:57:48;;;;;;;17.85;10.27;;;;;;;;;;5058118;28;20024;-85
2023/04/22 09:00:17;;;;;;;24.25;11.23;;;;;;;;;;5057463;28;20025;-84
2023/04/22 09:02:45;;;;;;;18.35;11.00;;;;;;;;;;5055828;28;20021;-86
2023/04/22 09:05:13;;;;;;;25.02;11.35;;;;;;;;;;5057665;28;20017;-85
2023/04/22 09:07:39;;;;;;;16.73;11.50;;;;;;;;;;5058271;28;20036;-85
2023/04/22 09:10:07;;;;;;;14.65;10.48;;;;;;;;;;5056262;28;20254;-90
2023/04/22 09:12:33;;;;;;;21.70;11.75;;;;;;;;;;5057729;28;20020;-84
2023/04/22 09:14:59;;;;;;;20.35;10.15;;;;;;;;;;5059097;28;20025;-83
2023/04/22 09:17:33;;;;;;;18.88;10.52;;;;;;;;;;5056105;28;20021;-86
2023/04/22 09:20:03;;;;;;;17.30;10.68;;;;;;;;;;5056039;28;20033;-87
2023/04/22 09:22:42;;;;;;;13.60;9.32;;;;;;;;;;5058519;28;20021;-86
2023/04/22 09:25:18;;;;;;;18.33;10.88;;;;;;;;;;5056733;28;20029;-85
2023/04/22 09:27:58;;;;;;;18.65;8.77;;;;;;;;;;5057223;28;20044;-85
2023/04/22 09:30:31;;;;;;;14.73;9.10;;;;;;;;;;5056477;28;20033;-86
2023/04/22 09:32:59;;;;;;;18.23;9.18;;;;;;;;;;5056384;28;20024;-85
2023/04/22 09:35:36;;;;;;;12.95;8.05;;;;;;;;;;5057072;28;20016;-86
2023/04/22 09:38:05;;;;;;;12.00;8.35;;;;;;;;;;5056534;28;20028;-85
2023/04/22 09:40:31;;;;;;;15.13;8.23;;;;;;;;;;5056683;28;20119;-81
2023/04/22 09:42:58;;;;;;;15.27;9.05;;;;;;;;;;5056441;28;20025;-86
2023/04/22 09:45:32;;;;;;;14.32;8.45;;;;;;;;;;5057351;28;20097;-87
2023/04/22 09:48:07;;;;;;;16.58;9.43;;;;;;;;;;5009145;28;1474928;-85
2023/04/22 09:50:33;;;;;;;14.13;6.97;;;;;;;;;;5056416;28;20518;-85
2023/04/22 09:53:00;;;;;;;6.60;5.35;;;;;;;;;;5056878;28;20029;-84
2023/04/22 09:55:29;;;;;;;9.98;4.90;;;;;;;;;;5057333;28;20091;-86
2023/04/22 09:57:56;;;;;;;10.32;4.15;;;;;;;;;;5056294;28;20025;-85
2023/04/22 10:00:27;;;;;;;9.65;5.70;;;;;;;;;;5058572;28;20037;-84
2023/04/22 10:02:53;;;;;;;9.93;4.90;;;;;;;;;;5057819;28;20029;-86
2023/04/22 10:05:19;;;;;;;6.05;3.90;;;;;;;;;;5057147;28;20036;-88
2023/04/22 10:07:45;;;;;;;10.10;4.90;;;;;;;;;;5056147;28;20420;-85
2023/04/22 10:10:11;;;;;;;13.93;5.05;;;;;;;;;;5059147;28;20072;-85
2023/04/22 10:12:36;;;;;;;9.45;4.18;;;;;;;;;;5040513;28;20014;-85
2023/04/22 10:15:06;;;;;;;7.97;4.20;;;;;;;;;;5058305;28;20028;-82
2023/04/22 10:17:37;;;;;;;6.80;4.38;;;;;;;;;;5055710;28;20036;-84
2023/04/22 10:20:09;;;;;;;6.93;4.50;;;;;;;;;;5058491;28;20029;-84
2023/04/22 10:22:35;;;;;;;9.45;4.45;;;;;;;;;;5058343;28;20033;-83
2023/04/22 10:25:01;;;;;;;8.32;5.22;;;;;;;;;;5058564;28;20029;-86
2023/04/22 10:27:28;;;;;;;11.85;4.88;;;;;;;;;;5057715;28;20145;-85
2023/04/22 10:29:56;;;;;;;9.27;5.25;;;;;;;;;;5040826;28;20017;-80
2023/04/22 10:32:25;;;;;;;9.05;4.50;;;;;;;;;;5057348;28;20029;-85
2023/04/22 10:35:07;;;;;;;12.48;4.22;;;;;;;;;;5061125;28;20032;-85
2023/04/22 10:37:33;;;;;;;9.90;4.57;;;;;;;;;;5058432;28;20021;-86
2023/04/22 10:40:10;;;;;;;5.47;3.88;;;;;;;;;;5060031;28;20086;-86
2023/04/22 10:42:40;;;;;;;6.93;3.70;;;;;;;;;;5060746;28;20048;-85
2023/04/22 10:45:10;;;;;;;4.75;4.25;;;;;;;;;;5063767;28;20037;-85
2023/04/22 10:47:38;;;;;;;7.68;4.38;;;;;;;;;;5061351;28;20389;-85
2023/04/22 10:50:17;;;;;;;8.90;4.57;;;;;;;;;;5063511;28;20449;-83
2023/04/22 10:52:47;;;;;;;9.05;5.18;;;;;;;;;;5061842;28;20032;-85
2023/04/22 10:55:12;;;;;;;8.85;4.80;;;;;;;;;;5060985;28;20504;-87
2023/04/22 10:57:41;;;;;;;10.20;5.15;;;;;;;;;;5062590;28;20074;-87
2023/04/22 11:00:28;;;;;;;11.50;5.72;;;;;;;;;;5045903;28;20053;-85
2023/04/22 11:03:15;;;;;;;12.13;4.88;;;;;;;;;;5062017;28;20104;-85
2023/04/22 11:05:41;;;;;;;9.73;4.90;;;;;;;;;;5063078;28;20457;-84
2023/04/22 11:08:19;;;;;;;8.50;4.70;;;;;;;;;;5061153;28;20040;-87
2023/04/22 11:10:47;;;;;;;8.20;4.15;;;;;;;;;;5062213;28;20028;-85
2023/04/22 11:13:21;;;;;;;7.18;4.28;;;;;;;;;;5061634;28;20021;-85
2023/04/22 11:15:53;;;;;;;6.60;4.18;;;;;;;;;;5063904;28;20084;-86
2023/04/22 11:18:21;;;;;;;9.80;4.65;;;;;;;;;;5062231;28;20025;-87
2023/04/22 11:20:48;;;;;;;6.97;5.13;;;;;;;;;;5045468;28;20029;-87
2023/04/22 11:23:22;;;;;;;7.93;4.38;;;;;;;;;;5064593;28;20047;-86
2023/04/22 11:25:53;;;;;;;6.82;4.22;;;;;;;;;;5064328;28;20020;-87
2023/04/22 11:28:21;;;;;;;12.05;5.00;;;;;;;;;;5063152;28;20064;-86
2023/04/22 11:30:51;;;;;;;7.55;4.53;;;;;;;;;;5063721;28;20093;-86
2023/04/22 11:33:16;;;;;;;8.30;4.25;;;;;;;;;;5047301;28;20016;-85
2023/04/22 11:35:42;;;;;;;7.75;4.47;;;;;;;;;;5064401;28;20041;-85
2023/04/22 11:38:11;;;;;;;7.55;4.70;;;;;;;;;;5048905;28;20115;-86
2023/04/22 11:40:40;;;;;;;9.82;4.57;;;;;;;;;;5063753;28;20024;-86
2023/04/22 11:43:07;;;;;;;8.82;4.20;;;;;;;;;;5066111;28;20068;-84
2023/04/22 11:45:34;;;;;;;11.45;4.50;;;;;;;;;;5061052;28;20029;-84
2023/04/22 11:48:01;;;;;;;8.27;4.28;;;;;;;;;;5047792;28;20134;-83
2023/04/22 11:50:34;;;;;;;11.18;6.10;;;;;;;;;;5045966;28;20029;-81
2023/04/22 11:53:04;;;;;;;10.88;6.50;;;;;;;;;;5062599;28;20055;-86
2023/04/22 11:55:38;;;;;;;7.68;4.15;;;;;;;;;;5059575;28;20024;-84
2023/04/22 11:58:09;;;;;;;8.77;4.80;;;;;;;;;;5062794;28;20082;-86
2023/04/22 12:00:43;;;;;;;13.40;4.80;;;;;;;;;;5077386;28;20040;-85
2023/04/22 12:03:13;;;;;;;11.13;4.70;;;;;;;;;;5061502;28;20026;-86
2023/04/22 12:05:45;;;;;;;6.95;4.03;;;;;;;;;;5061644;28;20041;-87
2023/04/22 12:08:20;;;;;;;;;;;;;;;;;;5061322;28;20083;-82
2023/04/22 12:10:50;;;;;;;9.30;4.82;;;;;;;;;;5060697;28;20284;-83
2023/04/22 12:13:25;;;;;;;8.27;3.80;;;;;;;;;;5060828;28;20036;-82
2023/04/22 12:15:58;;;;;;;8.00;4.10;;;;;;;;;;5062372;28;20538;-82
2023/04/22 12:18:35;;;;;;;15.25;5.03;;;;;;;;;;5061408;28;20033;-83
2023/04/22 12:21:03;;;;;;;10.25;4.80;;;;;;;;;;5060711;28;20040;-85
2023/04/22 12:23:30;;;;;;;6.32;4.00;;;;;;;;;;5061851;28;20119;-86
2023/04/22 12:25:56;;;;;;;7.95;4.13;;;;;;;;;;5063737;28;20369;-86
2023/04/22 12:28:22;;;;;;;11.35;4.70;;;;;;;;;;5061027;28;20020;-84
2023/04/22 12:30:47;;;;;;;11.77;4.20;;;;;;;;;;5060844;28;20039;-86
2023/04/22 12:33:13;;;;;;;8.65;4.25;;;;;;;;;;5061137;28;20021;-87
2023/04/22 12:35:38;;;;;;;7.25;3.88;;;;;;;;;;5063322;28;20052;-87
2023/04/22 12:38:04;;;;;;;18.23;5.07;;;;;;;;;;5063150;28;20132;-86
2023/04/22 12:40:29;;;;;;;9.93;4.90;;;;;;;;;;5062325;28;20035;-84
2023/04/22 12:42:55;;;;;;;7.32;3.58;;;;;;;;;;5061089;28;20051;-85
2023/04/22 12:45:21;;;;;;;7.30;4.38;;;;;;;;;;5060568;28;20056;-82
2023/04/22 12:47:52;;;;;;;8.48;4.50;;;;;;;;;;5059876;28;20087;-83
2023/04/22 12:50:18;;;;;;;11.43;6.32;;;;;;;;;;5060548;28;20020;-86
2023/04/22 12:52:43;;;;;;;17.73;5.18;;;;;;;;;;5060617;28;20041;-86
2023/04/22 12:55:09;;;;;;;8.13;4.50;;;;;;;;;;5059760;28;20060;-87
2023/04/22 12:57:35;;;;;;;10.90;5.20;;;;;;;;;;5059397;28;20473;-87
2023/04/22 13:00:01;;;;;;;9.75;4.93;;;;;;;;;;5059872;28;20124;-86
2023/04/22 13:02:26;;;;;;;5.50;4.05;;;;;;;;;;5062324;28;20494;-86
2023/04/22 13:04:52;;;;;;;12.48;4.80;;;;;;;;;;5061887;28;20082;-85
2023/04/22 13:07:18;;;;;;;9.23;3.90;;;;;;;;;;5061633;28;20330;-87
2023/04/22 13:09:44;;;;;;;9.68;4.43;;;;;;;;;;5062658;28;20025;-85
2023/04/22 13:12:10;;;;;;;8.35;4.68;;;;;;;;;;5065659;28;20144;-86
2023/04/22 13:14:35;;;;;;;8.77;4.68;;;;;;;;;;5067077;28;20040;-85
2023/04/22 13:17:02;;;;;;;7.28;4.35;;;;;;;;;;5064639;28;20028;-85
2023/04/22 13:19:28;;;;;;;10.70;4.72;;;;;;;;;;5062727;28;20096;-84
2023/04/22 13:21:54;;;;;;;13.02;5.25;;;;;;;;;;5063882;28;20063;-86
2023/04/22 13:24:20;;;;;;;8.90;4.30;;;;;;;;;;5062863;28;20039;-88
2023/04/22 13:26:45;;;;;;;9.73;5.07;;;;;;;;;;5062805;28;20487;-86
2023/04/22 13:29:12;;;;;;;8.73;4.18;;;;;;;;;;5062056;28;20052;-86
2023/04/22 13:31:43;;;;;;;7.45;3.58;;;;;;;;;;5058921;28;20025;-87
2023/04/22 13:34:10;;;;;;;6.13;4.15;;;;;;;;;;5063472;28;20036;-87
2023/04/22 13:36:35;;;;;;;6.47;4.20;;;;;;;;;;5061222;28;20087;-86
2023/04/22 13:39:01;;;;;;;6.70;3.72;;;;;;;;;;5061281;28;20025;-84
2023/04/22 13:41:26;;;;;;;7.25;3.85;;;;;;;;;;5060733;28;20008;-86
2023/04/22 13:43:53;;;;;;;9.10;4.28;;;;;;;;;;5060749;28;20025;-86
2023/04/22 13:46:19;;;;;;;8.30;4.30;;;;;;;;;;5058457;28;20021;-85
2023/04/22 13:48:45;;;;;;;6.03;3.85;;;;;;;;;;5057541;28;20437;-88
2023/04/22 13:51:11;;;;;;;10.45;4.18;;;;;;;;;;5058578;28;20049;-85
2023/04/22 13:53:36;;;;;;;8.65;3.80;;;;;;;;;;5055973;28;20044;-86
2023/04/22 13:56:02;;;;;;;9.63;3.85;;;;;;;;;;5059569;28;20032;-87
2023/04/22 13:58:28;;;;;;;5.45;4.00;;;;;;;;;;5057565;28;20092;-86
2023/04/22 14:00:53;;;;;;;8.80;4.93;;;;;;;;;;5057570;28;20021;-88
2023/04/22 14:03:19;;;;;;;10.95;4.03;;;;;;;;;;5057923;28;20028;-86
2023/04/22 14:05:44;;;;;;;5.03;3.38;;;;;;;;;;5057487;28;20396;-86
2023/04/22 14:08:11;;;;;;;10.70;4.05;;;;;;;;;;5057874;28;20139;-88
2023/04/22 14:10:36;;;;;;;9.32;3.45;;;;;;;;;;5041571;28;20497;-85
2023/04/22 14:13:02;;;;;;;7.07;3.42;;;;;;;;;;5057383;28;20107;-88
2023/04/22 14:15:28;;;;;;;5.22;3.55;;;;;;;;;;5055849;28;20029;-86
2023/04/22 14:17:53;;;;;;;6.65;3.33;;;;;;;;;;5059171;28;20036;-87
2023/04/22 14:20:19;;;;;;;7.07;3.05;;;;;;;;;;5060481;28;20115;-87
2023/04/22 14:22:45;;;;;;;5.00;2.92;;;;;;;;;;5059198;28;20032;-87